KROS

Rush City Regional Airport

Rush City, Minnesota, USA
METAR KROS 182216Z AUTO 00000KT 7SM +RA OVC110 24/17 A3001 RMK AO2 T02410167
Observed Flight Rules
Jun-18 @ 22:16 UTC (23 minutes ago) Visual Flight Rules
Visibility Clouds Conditions
7 miles
  • Overcast at 11,000' AGL
  • Heavy Rain
Temperatures Readings
Current 24°C / 75°F
Dewpoint 17°C / 63°F
Humidity 65%
Altimeter 30.01" Hg
Pressure 1016 hPa
Elevation 281
METAR KROS 182216Z AUTO 00000KT 7SM +RA OVC110 24/17 A3001 RMK AO2 T02410167
Observed Flight Rules
Jun-18 @ 22:16 UTC
(23 minutes ago)
VFR
Clouds
  • Overcast at 11,000' AGL
Conditions
  • Heavy Rain
Temperature Dewpoint
24°C / 75°F 17°C / 63°F
Humidity Altimeter Pressure
65% 30.01" Hg 1016 hPa